createdAt,value
2018-08-12T00:00:33.116Z,33.70
2018-08-12T00:01:33.092Z,33.51
2018-08-12T00:02:33.093Z,32.82
2018-08-12T00:03:33.050Z,33.22
2018-08-12T00:04:32.996Z,32.82
2018-08-12T00:05:32.975Z,32.64
2018-08-12T00:06:33.312Z,32.15
2018-08-12T00:07:32.922Z,31.76
2018-08-12T00:08:32.879Z,31.57
2018-08-12T00:09:32.862Z,31.57
2018-08-12T00:10:33.125Z,31.76
2018-08-12T00:11:32.790Z,31.65
2018-08-12T00:12:32.769Z,31.35
2018-08-12T00:13:32.755Z,31.26
2018-08-12T00:14:32.732Z,31.35
2018-08-12T00:15:32.711Z,31.65
2018-08-12T00:16:32.651Z,31.84
2018-08-12T00:17:32.626Z,32.52
2018-08-12T00:18:32.585Z,32.23
2018-08-12T00:19:32.558Z,32.62
2018-08-12T00:20:32.529Z,32.91
2018-08-12T00:21:32.508Z,32.50
2018-08-12T00:22:32.466Z,32.42
2018-08-12T00:23:32.644Z,32.70
2018-08-12T00:24:32.428Z,32.79
2018-08-12T00:25:32.385Z,32.89
2018-08-12T00:26:32.366Z,32.79
2018-08-12T00:27:32.323Z,33.09
2018-08-12T00:28:32.305Z,32.89
2018-08-12T00:29:32.270Z,32.89
2018-08-12T00:30:32.320Z,32.60
2018-08-12T00:31:32.207Z,32.87
2018-08-12T00:32:32.179Z,32.89
2018-08-12T00:33:32.182Z,32.89
2018-08-12T00:34:32.113Z,32.70
2018-08-12T00:35:32.080Z,32.60
2018-08-12T00:36:32.055Z,32.78
2018-08-12T00:37:32.022Z,32.59
2018-08-12T00:38:31.994Z,32.78
2018-08-12T00:39:32.209Z,32.97
2018-08-12T00:40:31.934Z,33.75
2018-08-12T00:41:31.914Z,34.33
2018-08-12T00:42:31.873Z,34.33
2018-08-12T00:44:57.117Z,35.69
2018-08-12T00:45:56.900Z,35.78
2018-08-12T00:46:56.893Z,35.59
2018-08-12T00:47:56.838Z,35.88
2018-08-12T00:48:57.009Z,36.18
2018-08-12T00:49:56.767Z,35.78
2018-08-12T00:50:56.741Z,36.18
2018-08-12T00:51:56.720Z,35.98
2018-08-12T00:52:56.685Z,36.46
2018-08-12T00:53:56.648Z,36.54
2018-08-12T00:54:56.634Z,36.83
2018-08-12T00:55:56.750Z,37.03
2018-08-12T00:56:56.569Z,37.03
2018-08-12T00:57:56.535Z,37.03
2018-08-12T00:58:56.515Z,37.61
2018-08-12T00:59:56.480Z,37.61
2018-08-12T01:00:56.449Z,38.09
2018-08-12T01:01:56.436Z,38.00
2018-08-12T01:02:56.387Z,38.00
2018-08-12T01:03:56.349Z,38.19
2018-08-12T01:04:56.328Z,37.79
2018-08-12T01:05:56.298Z,37.69
2018-08-12T01:06:56.271Z,37.59
2018-08-12T01:07:56.231Z,37.59
2018-08-12T01:08:56.203Z,37.30
2018-08-12T01:09:56.181Z,38.17
2018-08-12T01:10:56.138Z,37.98
2018-08-12T01:11:56.112Z,38.07
2018-08-12T01:12:56.106Z,37.49
2018-08-12T01:13:56.060Z,36.82
2018-08-12T01:14:56.042Z,36.99
2018-08-12T01:15:55.998Z,36.99
2018-08-12T01:16:55.967Z,36.80
2018-08-12T01:17:55.937Z,36.70
2018-08-12T01:18:55.912Z,36.80
2018-08-12T01:19:55.867Z,36.60
2018-08-12T01:20:55.996Z,36.22
2018-08-12T01:21:55.952Z,35.64
2018-08-12T01:22:55.784Z,35.35
2018-08-12T01:23:55.756Z,35.25
2018-08-12T01:24:55.717Z,34.77
2018-08-12T01:25:55.952Z,34.47
2018-08-12T01:26:55.659Z,34.28
2018-08-12T01:28:55.595Z,33.70
2018-08-12T01:29:55.577Z,33.60
2018-08-12T01:30:55.543Z,33.31
2018-08-12T01:31:55.505Z,33.41
2018-08-12T01:33:55.453Z,33.12
2018-08-12T01:34:55.428Z,33.22
2018-08-12T01:35:55.410Z,33.70
2018-08-12T01:36:55.363Z,33.12
2018-08-12T01:37:55.325Z,33.41
2018-08-12T01:38:55.323Z,33.31
2018-08-12T01:39:55.273Z,33.12
2018-08-12T01:40:55.233Z,33.02
2018-08-12T01:41:55.208Z,33.89
2018-08-12T01:42:55.181Z,33.99
2018-08-12T01:43:55.139Z,35.05
2018-08-12T01:44:55.150Z,35.44
2018-08-12T01:45:55.084Z,35.25
2018-08-12T01:46:55.051Z,35.42
2018-08-12T01:47:55.025Z,35.04
2018-08-12T01:48:54.991Z,35.13
2018-08-12T01:49:54.957Z,35.52
2018-08-12T01:50:54.938Z,35.23
2018-08-12T01:51:54.907Z,34.84
2018-08-12T01:52:54.880Z,34.17
2018-08-12T01:53:54.851Z,33.69
2018-08-12T01:54:54.804Z,33.49
2018-08-12T01:55:54.777Z,33.10
2018-08-12T01:56:55.320Z,33.29
2018-08-12T01:57:54.714Z,32.52
2018-08-12T01:58:54.848Z,32.42
2018-08-12T01:59:54.676Z,32.33
2018-08-12T02:00:54.622Z,32.23
2018-08-12T02:01:54.611Z,31.84
2018-08-12T02:02:54.592Z,32.14
2018-08-12T02:03:54.547Z,31.94
2018-08-12T02:04:54.602Z,31.84
2018-08-12T02:05:54.476Z,31.65
2018-08-12T02:06:54.473Z,31.56
2018-08-12T02:07:54.417Z,31.16
2018-08-12T02:08:54.381Z,31.07
2018-08-12T02:09:54.346Z,31.16
2018-08-12T02:10:54.333Z,31.16
2018-08-12T02:11:54.284Z,31.46
2018-08-12T02:12:54.275Z,31.26
2018-08-12T02:13:54.237Z,31.26
2018-08-12T02:14:54.266Z,31.36
2018-08-12T02:15:54.172Z,31.07
2018-08-12T02:16:54.135Z,31.15
2018-08-12T02:17:54.103Z,30.98
2018-08-12T02:18:54.068Z,30.98
2018-08-12T02:19:54.102Z,30.98
2018-08-12T02:20:54.021Z,30.78
2018-08-12T02:21:53.988Z,30.88
2018-08-12T02:22:53.954Z,30.78
2018-08-12T02:23:53.926Z,30.68
2018-08-12T02:25:53.865Z,30.98
2018-08-12T02:26:53.871Z,31.07
2018-08-12T02:27:53.795Z,30.96
2018-08-12T02:28:53.763Z,31.15
2018-08-12T02:29:53.747Z,31.54
2018-08-12T02:30:53.864Z,31.63
2018-08-12T02:31:53.677Z,31.54
2018-08-12T02:32:53.650Z,31.83
2018-08-12T02:33:53.622Z,31.73
2018-08-12T02:34:53.630Z,31.34
2018-08-12T02:35:53.557Z,31.15
2018-08-12T02:36:53.672Z,30.96
2018-08-12T02:37:53.496Z,30.76
2018-08-12T02:38:53.462Z,30.76
2018-08-12T02:39:53.453Z,30.76
2018-08-12T02:40:53.401Z,30.76
2018-08-12T02:41:53.372Z,31.05
2018-08-12T02:42:53.331Z,30.66
2018-08-12T02:43:53.302Z,30.66
2018-08-12T02:44:53.277Z,30.76
2018-08-12T02:45:53.246Z,30.66
2018-08-12T02:46:53.212Z,30.57
2018-08-12T02:47:53.180Z,30.57
2018-08-12T02:48:53.154Z,30.66
2018-08-12T02:49:53.117Z,31.05
2018-08-12T02:50:53.106Z,31.23
2018-08-12T02:52:53.032Z,31.73
2018-08-12T02:53:53.003Z,32.70
2018-08-12T02:54:52.975Z,32.79
2018-08-12T02:55:52.933Z,33.45
2018-08-12T02:56:52.917Z,33.57
2018-08-12T02:57:52.908Z,33.55
2018-08-12T02:58:52.860Z,33.45
2018-08-12T02:59:52.824Z,33.36
2018-08-12T03:00:52.787Z,33.55
2018-08-12T03:01:52.756Z,33.75
2018-08-12T03:02:52.893Z,33.07
2018-08-12T03:03:52.689Z,32.68
2018-08-12T03:04:52.661Z,32.59
2018-08-12T03:05:52.636Z,32.57
2018-08-12T03:06:52.592Z,32.96
2018-08-12T03:07:52.560Z,32.78
2018-08-12T03:08:52.539Z,32.76
2018-08-12T03:09:52.537Z,32.47
2018-08-12T03:10:52.471Z,32.47
2018-08-12T03:11:52.446Z,32.28
2018-08-12T03:12:52.415Z,32.18
2018-08-12T03:13:52.384Z,32.09
2018-08-12T03:14:52.368Z,32.18
2018-08-12T03:15:52.332Z,32.18
2018-08-12T03:16:52.298Z,31.98
2018-08-12T03:17:52.253Z,32.47
2018-08-12T03:18:52.227Z,32.07
2018-08-12T03:19:52.202Z,32.07
2018-08-12T03:20:52.160Z,32.07
2018-08-12T03:21:52.135Z,32.46
2018-08-12T03:22:52.118Z,32.56
2018-08-12T03:23:52.078Z,32.84
2018-08-12T03:24:52.038Z,33.04
2018-08-12T03:25:52.007Z,33.14
2018-08-12T03:26:51.979Z,33.23
2018-08-12T03:27:51.949Z,32.94
2018-08-12T03:28:51.914Z,32.94
2018-08-12T03:29:51.880Z,33.04
2018-08-12T03:30:51.872Z,33.23
2018-08-12T03:31:51.822Z,32.94
2018-08-12T03:32:51.795Z,33.14
2018-08-12T03:33:51.759Z,32.17
2018-08-12T03:34:52.035Z,32.26
2018-08-12T03:35:51.694Z,31.98
2018-08-12T03:36:51.664Z,31.59
2018-08-12T03:37:51.647Z,31.59
2018-08-12T03:38:51.604Z,31.40
2018-08-12T03:39:51.578Z,31.68
2018-08-12T03:40:51.543Z,31.49
2018-08-12T03:41:51.524Z,31.40
2018-08-12T03:42:51.485Z,31.40
2018-08-12T03:43:51.461Z,31.30
2018-08-12T03:44:51.427Z,31.01
2018-08-12T03:45:51.393Z,31.01
2018-08-12T03:46:51.349Z,30.82
2018-08-12T03:47:51.324Z,30.91
2018-08-12T03:48:51.307Z,30.72
2018-08-12T03:49:51.276Z,30.62
2018-08-12T03:50:51.346Z,30.62
2018-08-12T03:51:51.197Z,30.14
2018-08-12T03:52:51.169Z,30.24
2018-08-12T03:53:51.148Z,29.75
2018-08-12T03:54:51.198Z,29.85
2018-08-12T03:55:51.078Z,30.04
2018-08-12T03:56:51.043Z,30.04
2018-08-12T03:57:51.011Z,30.43
2018-08-12T03:58:50.988Z,32.84
2018-08-12T03:59:50.949Z,35.94
2018-08-12T04:00:50.919Z,36.80
2018-08-12T04:01:50.894Z,37.67
2018-08-12T04:02:50.886Z,38.35
2018-08-12T04:03:50.820Z,38.45
2018-08-12T04:04:50.798Z,38.62
2018-08-12T04:05:50.760Z,38.71
2018-08-12T04:06:50.873Z,39.97
2018-08-12T04:07:50.693Z,39.59
2018-08-12T04:08:50.662Z,39.49
2018-08-12T04:09:50.630Z,39.97
2018-08-12T04:10:50.603Z,39.87
2018-08-12T04:11:50.570Z,38.70
2018-08-12T04:12:50.549Z,38.51
2018-08-12T04:13:50.509Z,37.83
2018-08-12T04:14:50.483Z,37.73
2018-08-12T04:15:50.447Z,37.93
2018-08-12T04:16:50.410Z,37.45
2018-08-12T04:17:50.378Z,37.25
2018-08-12T04:18:50.363Z,36.29
2018-08-12T04:19:50.323Z,35.71
2018-08-12T04:20:50.291Z,35.90
2018-08-12T04:21:50.271Z,35.42
2018-08-12T04:22:50.219Z,35.03
2018-08-12T04:23:50.193Z,34.45
2018-08-12T04:24:50.162Z,34.26
2018-08-12T04:25:50.141Z,34.16
2018-08-12T04:26:50.093Z,33.87
2018-08-12T04:27:50.078Z,33.58
2018-08-12T04:28:50.037Z,33.10
2018-08-12T04:29:50.010Z,33.78
2018-08-12T04:30:49.986Z,34.94
2018-08-12T04:31:49.935Z,37.54
2018-08-12T04:32:49.904Z,38.70
2018-08-12T04:33:49.891Z,39.76
2018-08-12T04:34:49.843Z,40.24
2018-08-12T04:35:49.811Z,40.92
2018-08-12T04:36:49.780Z,41.57
2018-08-12T04:37:49.754Z,42.15
2018-08-12T04:38:49.962Z,42.25
2018-08-12T04:39:49.703Z,42.93
2018-08-12T04:40:49.657Z,42.15
2018-08-12T04:41:49.637Z,41.67
2018-08-12T04:42:49.615Z,41.28
2018-08-12T04:43:49.564Z,40.99
2018-08-12T04:44:49.533Z,40.42
2018-08-12T04:45:49.498Z,39.94
2018-08-12T04:46:49.472Z,40.03
2018-08-12T04:47:49.430Z,38.85
2018-08-12T04:48:49.414Z,37.79
2018-08-12T04:49:49.417Z,36.94
2018-08-12T04:50:49.347Z,36.54
2018-08-12T04:51:49.301Z,35.86
2018-08-12T04:52:49.273Z,35.88
2018-08-12T04:53:49.241Z,35.77
2018-08-12T04:54:49.205Z,35.96
2018-08-12T04:55:49.180Z,36.35
2018-08-12T04:56:49.149Z,36.35
2018-08-12T04:57:49.142Z,36.25
2018-08-12T04:58:49.079Z,36.25
2018-08-12T04:59:49.099Z,35.96
2018-08-12T05:00:49.012Z,35.48
2018-08-12T05:01:48.990Z,35.38
2018-08-12T05:02:48.955Z,36.73
2018-08-12T05:03:48.924Z,38.76
2018-08-12T05:04:48.893Z,40.01
2018-08-12T05:05:48.862Z,40.97
2018-08-12T05:06:48.822Z,41.55
2018-08-12T05:07:48.796Z,42.03
2018-08-12T05:08:48.765Z,42.79
2018-08-12T05:09:48.737Z,42.11
2018-08-12T05:10:48.821Z,41.53
2018-08-12T05:11:48.677Z,40.95
2018-08-12T05:12:48.645Z,39.70
2018-08-12T05:13:48.599Z,39.70
2018-08-12T05:14:48.571Z,39.12
2018-08-12T05:15:48.544Z,38.45
2018-08-12T05:16:48.508Z,37.39
2018-08-12T05:17:48.480Z,36.81
2018-08-12T05:18:48.460Z,36.33
2018-08-12T05:19:48.408Z,36.23
2018-08-12T05:20:48.371Z,37.39
2018-08-12T05:21:48.344Z,38.45
2018-08-12T05:22:48.308Z,38.45
2018-08-12T05:23:48.286Z,37.96
2018-08-12T05:24:48.244Z,37.19
2018-08-12T05:25:48.222Z,36.33
2018-08-12T05:26:48.180Z,35.27
2018-08-12T05:27:48.151Z,35.17
2018-08-12T05:28:48.115Z,35.08
2018-08-12T05:29:48.096Z,35.08
2018-08-12T05:30:48.057Z,35.08
2018-08-12T05:31:48.022Z,35.08
2018-08-12T05:32:48.001Z,34.50
2018-08-12T05:33:47.959Z,34.30
2018-08-12T05:34:47.919Z,34.21
2018-08-12T05:35:47.907Z,33.73
2018-08-12T05:36:47.856Z,33.63
2018-08-12T05:37:47.826Z,33.53
2018-08-12T05:38:47.802Z,33.34
2018-08-12T05:39:47.761Z,33.73
2018-08-12T05:40:47.726Z,33.73
2018-08-12T05:41:47.697Z,33.25
2018-08-12T05:42:47.664Z,33.34
2018-08-12T05:43:47.628Z,33.44
2018-08-12T05:44:47.597Z,33.05
2018-08-12T05:45:47.583Z,32.47
2018-08-12T05:46:47.659Z,33.63
2018-08-12T05:47:47.506Z,33.44
2018-08-12T05:48:47.475Z,33.34
2018-08-12T05:49:47.443Z,33.61
2018-08-12T05:50:47.400Z,33.25
2018-08-12T05:51:47.370Z,32.95
2018-08-12T05:52:47.371Z,32.57
2018-08-12T05:53:47.310Z,33.05
2018-08-12T05:54:47.269Z,32.46
2018-08-12T05:55:47.238Z,32.47
2018-08-12T05:56:47.215Z,32.56
2018-08-12T05:57:47.196Z,32.07
2018-08-12T05:58:47.141Z,32.75
2018-08-12T05:59:47.124Z,33.03
2018-08-12T06:00:47.088Z,33.71
2018-08-12T06:01:47.093Z,33.51
2018-08-12T06:02:47.026Z,33.51
2018-08-12T06:03:46.977Z,33.61
2018-08-12T06:04:46.948Z,34.19
2018-08-12T06:05:46.919Z,34.17
2018-08-12T06:06:46.885Z,34.29
2018-08-12T06:07:47.060Z,34.67
2018-08-12T06:08:46.831Z,35.06
2018-08-12T06:09:46.794Z,35.44
2018-08-12T06:10:46.749Z,35.73
2018-08-12T06:11:46.731Z,36.60
2018-08-12T06:12:46.683Z,37.66
2018-08-12T06:13:46.705Z,39.78
2018-08-12T06:14:46.629Z,40.36
2018-08-12T06:15:46.614Z,40.36
2018-08-12T06:16:46.565Z,40.55
2018-08-12T06:17:46.523Z,41.22
2018-08-12T06:18:46.500Z,41.41
2018-08-12T06:19:46.461Z,41.59
2018-08-12T06:20:46.423Z,41.30
2018-08-12T06:21:46.404Z,41.11
2018-08-12T06:22:46.362Z,41.39
2018-08-12T06:23:46.338Z,41.39
2018-08-12T06:24:46.296Z,41.30
2018-08-12T06:25:46.308Z,40.91
2018-08-12T06:26:46.229Z,39.56
2018-08-12T06:27:46.210Z,39.95
2018-08-12T06:28:46.176Z,39.28
2018-08-12T06:29:46.141Z,38.79
2018-08-12T06:30:46.117Z,38.89
2018-08-12T06:31:46.081Z,39.76
2018-08-12T06:32:46.052Z,38.79
2018-08-12T06:33:46.015Z,37.74
2018-08-12T06:34:45.969Z,38.51
2018-08-12T06:35:45.935Z,40.24
2018-08-12T06:36:46.021Z,41.11
2018-08-12T06:37:45.878Z,41.20
2018-08-12T06:38:45.840Z,41.30
2018-08-12T06:39:46.148Z,41.11
2018-08-12T06:40:45.791Z,40.91
2018-08-12T06:41:45.743Z,41.28
2018-08-12T06:42:45.709Z,41.56
2018-08-12T06:43:45.676Z,41.56
2018-08-12T06:44:45.640Z,42.05
2018-08-12T06:45:45.610Z,41.95
2018-08-12T06:46:45.574Z,42.82
2018-08-12T06:47:45.543Z,42.91
2018-08-12T06:48:45.512Z,42.82
2018-08-12T06:49:45.475Z,43.01
2018-08-12T06:50:45.450Z,42.91
2018-08-12T06:51:45.560Z,42.63
2018-08-12T06:52:45.379Z,43.01
2018-08-12T06:53:45.346Z,42.91
2018-08-12T06:54:45.316Z,42.72
2018-08-12T06:55:45.276Z,42.72
2018-08-12T06:56:45.251Z,42.53
2018-08-12T06:57:45.218Z,42.91
2018-08-12T06:58:45.176Z,43.08
2018-08-12T06:59:45.176Z,43.11
2018-08-12T07:00:45.110Z,43.68
2018-08-12T07:01:45.093Z,43.66
2018-08-12T07:02:45.053Z,43.08
2018-08-12T07:03:45.016Z,42.72
2018-08-12T07:04:44.986Z,41.93
2018-08-12T07:05:44.948Z,40.88
2018-08-12T07:06:44.918Z,40.97
2018-08-12T07:07:44.887Z,42.70
2018-08-12T07:08:44.854Z,43.18
2018-08-12T07:09:44.814Z,42.80
2018-08-12T07:10:44.786Z,42.60
2018-08-12T07:11:44.748Z,42.70
2018-08-12T07:12:44.716Z,42.41
2018-08-12T07:13:44.695Z,42.50
2018-08-12T07:14:44.661Z,42.12
2018-08-12T07:15:44.626Z,41.35
2018-08-12T07:16:44.590Z,40.88
2018-08-12T07:17:44.554Z,39.72
2018-08-12T07:18:44.521Z,39.43
2018-08-12T07:19:44.489Z,39.81
2018-08-12T07:20:44.451Z,39.62
2018-08-12T07:21:44.528Z,39.53
2018-08-12T07:22:44.413Z,39.72
2018-08-12T07:23:44.376Z,39.53
2018-08-12T07:24:44.350Z,39.72
2018-08-12T07:25:44.373Z,40.30
2018-08-12T07:26:44.301Z,41.06
2018-08-12T07:27:44.216Z,41.16
2018-08-12T07:28:44.196Z,41.45
2018-08-12T07:29:44.157Z,41.26
2018-08-12T07:30:44.120Z,41.06
2018-08-12T07:31:44.088Z,41.16
2018-08-12T07:32:44.105Z,40.97
2018-08-12T07:33:44.017Z,40.78
2018-08-12T07:34:43.984Z,40.97
2018-08-12T07:35:43.956Z,41.64
2018-08-12T07:36:43.931Z,42.99
2018-08-12T07:37:43.998Z,43.28
2018-08-12T07:38:43.871Z,43.76
2018-08-12T07:39:43.843Z,44.82
2018-08-12T07:40:43.782Z,45.28
2018-08-12T07:41:43.754Z,45.76
2018-08-12T07:42:43.724Z,46.91
2018-08-12T07:43:43.887Z,46.91
2018-08-12T07:44:43.662Z,47.30
2018-08-12T07:45:43.621Z,47.58
2018-08-12T07:46:43.585Z,47.20
2018-08-12T07:47:43.556Z,45.47
2018-08-12T07:48:43.559Z,44.99
2018-08-12T07:49:43.485Z,44.89
2018-08-12T07:50:43.448Z,45.47
2018-08-12T07:51:43.417Z,45.28
2018-08-12T07:52:43.385Z,45.08
2018-08-12T07:53:43.351Z,44.22
2018-08-12T07:55:43.544Z,43.35
2018-08-12T07:56:43.250Z,43.45
2018-08-12T07:57:43.223Z,44.70
2018-08-12T07:58:43.184Z,45.28
2018-08-12T07:59:43.349Z,45.66
2018-08-12T08:00:43.119Z,45.37
2018-08-12T08:01:43.086Z,44.60
2018-08-12T08:02:43.057Z,45.08
2018-08-12T08:03:43.017Z,44.68
2018-08-12T08:04:42.989Z,45.56
2018-08-12T08:05:42.946Z,46.02
2018-08-12T08:06:42.921Z,46.59
2018-08-12T08:07:42.886Z,46.98
2018-08-12T08:08:42.858Z,46.89
2018-08-12T08:09:42.822Z,47.46
2018-08-12T08:10:42.981Z,47.85
2018-08-12T08:11:42.751Z,47.46
2018-08-12T08:12:42.714Z,47.94
2018-08-12T08:13:42.683Z,48.33
2018-08-12T08:14:42.647Z,48.23
2018-08-12T08:15:42.612Z,48.23
2018-08-12T08:16:42.930Z,48.13
2018-08-12T08:17:42.549Z,48.23
2018-08-12T08:18:42.510Z,47.66
2018-08-12T08:19:42.526Z,47.08
2018-08-12T08:20:42.442Z,46.69
2018-08-12T08:21:42.410Z,46.69
2018-08-12T08:22:42.581Z,46.79
2018-08-12T08:23:42.345Z,45.92
2018-08-12T08:24:42.312Z,46.12
2018-08-12T08:25:42.376Z,46.79
2018-08-12T08:26:42.241Z,46.89
2018-08-12T08:27:42.234Z,47.56
2018-08-12T08:28:42.179Z,47.75
2018-08-12T08:29:42.139Z,47.94
2018-08-12T08:30:42.112Z,48.43
2018-08-12T08:31:42.240Z,49.10
2018-08-12T08:32:42.037Z,49.38
2018-08-12T08:33:42.278Z,49.77
2018-08-12T08:34:41.972Z,49.67
2018-08-12T08:35:41.941Z,49.96
2018-08-12T08:36:41.950Z,50.05
2018-08-12T08:37:41.878Z,49.77
2018-08-12T08:38:41.836Z,50.05
2018-08-12T08:39:42.204Z,50.15
2018-08-12T08:40:41.768Z,50.34
2018-08-12T08:41:41.736Z,50.80
2018-08-12T08:42:41.701Z,51.28
2018-08-12T08:43:41.671Z,51.21
2018-08-12T08:44:41.649Z,50.99
2018-08-12T08:45:41.801Z,50.70
2018-08-12T08:46:41.565Z,50.90
2018-08-12T08:47:41.532Z,50.51
2018-08-12T08:48:41.503Z,50.80
2018-08-12T08:49:41.518Z,50.32
2018-08-12T08:50:41.506Z,50.23
2018-08-12T08:51:41.412Z,49.55
2018-08-12T08:52:41.376Z,50.03
2018-08-12T08:53:41.340Z,49.17
2018-08-12T08:54:41.294Z,49.17
2018-08-12T08:55:41.311Z,48.69
2018-08-12T08:56:41.223Z,48.49
2018-08-12T08:57:41.197Z,48.49
2018-08-12T08:58:41.167Z,49.26
2018-08-12T08:59:41.132Z,49.55
2018-08-12T09:00:41.102Z,49.55
2018-08-12T09:01:41.361Z,50.32
2018-08-12T09:02:41.021Z,49.74
2018-08-12T09:03:40.989Z,50.42
2018-08-12T09:04:40.954Z,50.42
2018-08-12T09:05:40.920Z,50.51
2018-08-12T09:06:40.886Z,50.87
2018-08-12T09:07:41.055Z,50.96
2018-08-12T09:08:41.106Z,51.06
2018-08-12T09:09:40.792Z,51.25
2018-08-12T09:10:40.761Z,50.87
2018-08-12T09:11:40.717Z,51.47
2018-08-12T09:12:40.679Z,52.02
2018-08-12T09:13:40.846Z,51.54
2018-08-12T09:14:40.620Z,51.83
2018-08-12T09:15:40.583Z,52.31
2018-08-12T09:16:40.549Z,51.73
2018-08-12T09:17:40.517Z,52.12
2018-08-12T09:18:40.482Z,52.31
2018-08-12T09:19:40.445Z,52.40
2018-08-12T09:20:40.408Z,51.73
2018-08-12T09:21:40.383Z,51.64
2018-08-12T09:22:40.341Z,51.73
2018-08-12T09:23:40.305Z,51.64
2018-08-12T09:24:40.273Z,51.45
2018-08-12T09:25:40.246Z,51.93
2018-08-12T09:26:40.204Z,51.54
2018-08-12T09:27:40.172Z,51.54
2018-08-12T09:28:40.135Z,50.78
2018-08-12T09:29:40.501Z,51.54
2018-08-12T09:30:40.068Z,50.78
2018-08-12T09:31:40.032Z,50.96
2018-08-12T09:32:40.012Z,50.39
2018-08-12T09:33:39.964Z,49.72
2018-08-12T09:34:39.930Z,48.95
2018-08-12T09:35:40.100Z,48.47
2018-08-12T09:36:39.862Z,48.95
2018-08-12T09:37:39.837Z,49.52
2018-08-12T09:38:39.793Z,49.82
2018-08-12T09:39:39.767Z,49.72
2018-08-12T09:40:39.810Z,50.49
2018-08-12T09:41:39.943Z,51.16
2018-08-12T09:42:39.660Z,50.87
2018-08-12T09:43:39.626Z,51.45
2018-08-12T09:44:39.588Z,51.83
2018-08-12T09:45:39.569Z,51.83
2018-08-12T09:46:39.516Z,51.83
2018-08-12T09:47:39.496Z,51.93
2018-08-12T09:48:39.450Z,51.64
2018-08-12T09:49:39.418Z,51.83
2018-08-12T09:50:39.380Z,52.50
2018-08-12T09:51:39.413Z,52.02
2018-08-12T09:52:39.318Z,52.40
2018-08-12T09:53:39.281Z,52.60
2018-08-12T09:54:39.265Z,52.98
2018-08-12T09:55:39.209Z,52.69
2018-08-12T09:56:39.173Z,52.98
2018-08-12T09:57:39.395Z,52.79
2018-08-12T09:58:39.107Z,52.60
2018-08-12T09:59:39.069Z,53.17
2018-08-12T10:00:39.040Z,53.17
2018-08-12T10:01:39.010Z,53.66
2018-08-12T10:02:38.970Z,54.04
2018-08-12T10:03:39.283Z,54.04
2018-08-12T10:04:38.899Z,54.33
2018-08-12T10:05:38.902Z,54.33
2018-08-12T10:06:38.927Z,54.64
2018-08-12T10:07:38.803Z,54.16
2018-08-12T10:08:38.759Z,53.75
2018-08-12T10:09:38.936Z,53.78
2018-08-12T10:10:38.695Z,54.04
2018-08-12T10:11:38.668Z,53.56
2018-08-12T10:12:38.631Z,53.78
2018-08-12T10:13:38.594Z,54.04
2018-08-12T10:14:38.559Z,53.87
2018-08-12T10:15:38.551Z,53.97
2018-08-12T10:16:38.493Z,54.06
2018-08-12T10:17:38.454Z,54.06
2018-08-12T10:18:38.429Z,54.35
2018-08-12T10:19:38.386Z,54.55
2018-08-12T10:20:38.358Z,54.57
2018-08-12T10:21:38.374Z,54.57
2018-08-12T10:22:38.285Z,54.57
2018-08-12T10:23:38.254Z,54.38
2018-08-12T10:24:38.220Z,54.57
2018-08-12T10:25:38.188Z,54.19
2018-08-12T10:26:38.150Z,53.90
2018-08-12T10:27:38.123Z,53.70
2018-08-12T10:28:38.091Z,53.42
2018-08-12T10:29:38.049Z,53.32
2018-08-12T10:30:38.315Z,53.32
2018-08-12T10:31:37.986Z,53.25
2018-08-12T10:32:37.952Z,53.25
2018-08-12T10:33:37.916Z,53.54
2018-08-12T10:34:37.883Z,53.25
2018-08-12T10:35:37.850Z,53.54
2018-08-12T10:36:38.017Z,53.25
2018-08-12T10:37:37.784Z,53.35
2018-08-12T10:38:37.746Z,53.35
2018-08-12T10:39:37.712Z,53.64
2018-08-12T10:40:37.684Z,54.22
2018-08-12T10:41:37.657Z,54.24
2018-08-12T10:42:37.618Z,53.76
2018-08-12T10:43:37.589Z,53.28
2018-08-12T10:44:37.549Z,53.76
2018-08-12T10:45:37.523Z,53.38
2018-08-12T10:46:37.481Z,53.66
2018-08-12T10:47:37.649Z,53.57
2018-08-12T10:48:37.420Z,53.59
2018-08-12T10:49:37.385Z,53.59
2018-08-12T10:50:37.357Z,53.40
2018-08-12T10:51:37.317Z,53.69
2018-08-12T10:52:37.283Z,53.02
2018-08-12T10:53:37.276Z,53.11
2018-08-12T10:54:37.226Z,52.54
2018-08-12T10:55:37.186Z,53.02
2018-08-12T10:56:37.171Z,53.05
2018-08-12T10:57:37.126Z,52.85
2018-08-12T10:58:37.089Z,52.66
2018-08-12T10:59:37.060Z,52.85
2018-08-12T11:00:37.020Z,52.08
2018-08-12T11:01:36.993Z,52.20
2018-08-12T11:02:36.961Z,52.01
2018-08-12T11:03:36.924Z,51.14
2018-08-12T11:04:36.892Z,50.95
2018-08-12T11:05:36.866Z,51.34
2018-08-12T11:06:36.823Z,51.05
2018-08-12T11:07:36.792Z,51.36
2018-08-12T11:08:36.770Z,51.46
2018-08-12T11:09:36.739Z,51.84
2018-08-12T11:10:36.839Z,52.04
2018-08-12T11:11:36.663Z,51.39
2018-08-12T11:12:36.678Z,50.06
2018-08-12T11:13:36.601Z,49.15
2018-08-12T11:14:36.937Z,48.01
2018-08-12T11:15:36.548Z,46.49
2018-08-12T11:16:36.510Z,45.18
2018-08-12T11:17:36.474Z,44.31
2018-08-12T11:18:36.446Z,44.23
2018-08-12T11:19:36.407Z,43.29
2018-08-12T11:20:36.516Z,43.02
2018-08-12T11:21:36.360Z,42.17
2018-08-12T11:22:36.328Z,41.41
2018-08-12T11:23:36.288Z,41.31
2018-08-12T11:24:36.258Z,41.02
2018-08-12T11:25:36.230Z,41.51
2018-08-12T11:26:36.204Z,41.51
2018-08-12T11:27:36.175Z,41.22
2018-08-12T11:28:36.156Z,41.22
2018-08-12T11:29:36.173Z,40.73
2018-08-12T11:30:36.081Z,40.17
2018-08-12T11:31:36.050Z,39.95
2018-08-12T11:32:36.020Z,40.17
2018-08-12T11:33:36.002Z,40.08
2018-08-12T11:34:35.962Z,39.88
2018-08-12T11:35:36.235Z,39.69
2018-08-12T11:36:35.919Z,40.17
2018-08-12T11:37:35.875Z,39.59
2018-08-12T11:38:35.846Z,38.91
2018-08-12T11:39:35.828Z,38.64
2018-08-12T11:40:35.792Z,37.86
2018-08-12T11:41:36.211Z,37.08
2018-08-12T11:42:35.732Z,36.21
2018-08-12T11:43:35.710Z,35.63
2018-08-12T11:44:35.711Z,35.33
2018-08-12T11:45:35.657Z,34.27
2018-08-12T11:46:35.647Z,33.78
2018-08-12T11:47:35.739Z,34.56
2018-08-12T11:48:35.575Z,33.88
2018-08-12T11:49:35.567Z,33.80
2018-08-12T11:50:35.523Z,32.73
2018-08-12T11:51:35.494Z,32.05
2018-08-12T11:52:35.730Z,31.85
2018-08-12T11:53:35.435Z,30.71
2018-08-12T11:54:35.413Z,30.30
2018-08-12T11:55:35.389Z,30.90
2018-08-12T11:56:35.361Z,30.12
2018-08-12T11:57:35.338Z,29.54
2018-08-12T11:58:35.307Z,29.24
2018-08-12T11:59:35.335Z,28.26
2018-08-12T12:00:35.260Z,27.39
2018-08-12T12:01:35.227Z,27.68
2018-08-12T12:02:35.229Z,27.29
2018-08-12T12:03:35.185Z,25.75
2018-08-12T12:04:35.193Z,25.26
2018-08-12T12:05:35.130Z,26.12
2018-08-12T12:06:35.102Z,26.14
2018-08-12T12:07:35.078Z,24.71
2018-08-12T12:08:35.202Z,23.27
2018-08-12T12:09:35.036Z,21.73
2018-08-12T12:10:35.017Z,20.48
2018-08-12T12:11:35.034Z,19.91
2018-08-12T12:12:34.971Z,18.37
2018-08-12T12:13:34.945Z,18.37
2018-08-12T12:14:35.126Z,17.11
2018-08-12T12:15:34.881Z,17.42
2018-08-12T12:16:34.867Z,17.14
2018-08-12T12:17:34.850Z,16.66
2018-08-12T12:18:34.817Z,16.96
2018-08-12T12:19:34.785Z,16.86
2018-08-12T12:20:34.894Z,17.16
2018-08-12T12:21:34.742Z,16.19
2018-08-12T12:22:34.706Z,16.10
2018-08-12T12:23:34.706Z,16.30
2018-08-12T12:24:34.660Z,15.91
2018-08-12T12:25:34.646Z,15.91
2018-08-12T12:26:34.618Z,16.11
2018-08-12T12:27:34.597Z,15.32
2018-08-12T12:28:34.577Z,15.53
2018-08-12T12:29:34.577Z,15.53
2018-08-12T12:30:34.535Z,15.04
2018-08-12T12:31:34.514Z,15.23
2018-08-12T12:32:34.525Z,14.85
2018-08-12T12:33:34.490Z,14.17
2018-08-12T12:34:34.439Z,13.58
2018-08-12T12:35:34.510Z,13.68
2018-08-12T12:36:34.399Z,13.59
2018-08-12T12:37:34.381Z,13.20
2018-08-12T12:38:34.361Z,13.20
2018-08-12T12:39:34.340Z,13.40
2018-08-12T12:40:34.316Z,13.20
2018-08-12T12:41:34.297Z,13.51
2018-08-12T12:42:34.289Z,13.01
2018-08-12T12:43:34.255Z,12.23
2018-08-12T12:44:34.255Z,11.44
2018-08-12T12:45:34.223Z,11.33
2018-08-12T12:46:34.191Z,11.44
2018-08-12T12:47:34.177Z,11.74
2018-08-12T12:48:34.154Z,11.44
2018-08-12T12:49:34.243Z,10.95
2018-08-12T12:50:34.134Z,10.16
2018-08-12T12:51:34.131Z,9.97
2018-08-12T12:52:34.081Z,10.36
2018-08-12T12:53:34.054Z,10.46
2018-08-12T12:54:34.038Z,10.16
2018-08-12T12:55:34.022Z,10.36
2018-08-12T12:56:33.997Z,10.06
2018-08-12T12:57:33.988Z,10.16
2018-08-12T12:58:34.251Z,10.75